sensor_id;sensor_type;location;lat;lon;timestamp;P1;durP1;ratioP1;P2;durP2;ratioP2
17141;SDS011;32805;53.556;9.944;2022-09-25T00:00:46;27.20;;;16.45;;
17141;SDS011;32805;53.556;9.944;2022-09-25T00:03:15;27.50;;;17.40;;
17141;SDS011;32805;53.556;9.944;2022-09-25T00:05:44;26.70;;;17.40;;
17141;SDS011;32805;53.556;9.944;2022-09-25T00:08:15;25.55;;;16.80;;
17141;SDS011;32805;53.556;9.944;2022-09-25T00:10:44;24.45;;;15.70;;
17141;SDS011;32805;53.556;9.944;2022-09-25T00:13:14;24.15;;;16.17;;
17141;SDS011;32805;53.556;9.944;2022-09-25T00:15:45;24.65;;;16.30;;
17141;SDS011;32805;53.556;9.944;2022-09-25T00:18:14;27.23;;;16.27;;
17141;SDS011;32805;53.556;9.944;2022-09-25T00:20:42;27.92;;;16.45;;
17141;SDS011;32805;53.556;9.944;2022-09-25T00:23:09;29.98;;;16.90;;
17141;SDS011;32805;53.556;9.944;2022-09-25T00:25:38;26.02;;;16.73;;
17141;SDS011;32805;53.556;9.944;2022-09-25T00:28:05;24.00;;;16.20;;
17141;SDS011;32805;53.556;9.944;2022-09-25T00:30:33;27.30;;;16.13;;
17141;SDS011;32805;53.556;9.944;2022-09-25T00:33:06;25.98;;;16.45;;
17141;SDS011;32805;53.556;9.944;2022-09-25T00:35:33;30.25;;;18.33;;
17141;SDS011;32805;53.556;9.944;2022-09-25T00:38:01;37.72;;;19.92;;
17141;SDS011;32805;53.556;9.944;2022-09-25T00:40:29;34.40;;;19.48;;
17141;SDS011;32805;53.556;9.944;2022-09-25T00:42:58;36.10;;;20.52;;
17141;SDS011;32805;53.556;9.944;2022-09-25T00:45:25;33.05;;;18.15;;
17141;SDS011;32805;53.556;9.944;2022-09-25T00:47:54;33.00;;;18.98;;
17141;SDS011;32805;53.556;9.944;2022-09-25T00:50:28;34.53;;;18.67;;
17141;SDS011;32805;53.556;9.944;2022-09-25T00:53:00;35.88;;;20.00;;
17141;SDS011;32805;53.556;9.944;2022-09-25T00:55:32;37.78;;;21.40;;
17141;SDS011;32805;53.556;9.944;2022-09-25T00:58:02;31.63;;;19.40;;
17141;SDS011;32805;53.556;9.944;2022-09-25T01:00:31;35.95;;;20.42;;
17141;SDS011;32805;53.556;9.944;2022-09-25T01:03:00;34.10;;;19.27;;
17141;SDS011;32805;53.556;9.944;2022-09-25T01:05:31;39.13;;;19.98;;
17141;SDS011;32805;53.556;9.944;2022-09-25T01:08:02;35.65;;;18.83;;
17141;SDS011;32805;53.556;9.944;2022-09-25T01:10:32;39.58;;;20.95;;
17141;SDS011;32805;53.556;9.944;2022-09-25T01:12:59;32.58;;;19.10;;
17141;SDS011;32805;53.556;9.944;2022-09-25T01:15:30;32.60;;;17.65;;
17141;SDS011;32805;53.556;9.944;2022-09-25T01:18:09;33.13;;;18.27;;
17141;SDS011;32805;53.556;9.944;2022-09-25T01:20:49;32.28;;;19.08;;
17141;SDS011;32805;53.556;9.944;2022-09-25T01:23:30;31.52;;;17.60;;
17141;SDS011;32805;53.556;9.944;2022-09-25T01:26:20;30.45;;;18.80;;
17141;SDS011;32805;53.556;9.944;2022-09-25T01:29:06;43.55;;;21.42;;
17141;SDS011;32805;53.556;9.944;2022-09-25T01:31:39;31.65;;;19.08;;
17141;SDS011;32805;53.556;9.944;2022-09-25T01:34:12;38.53;;;18.83;;
17141;SDS011;32805;53.556;9.944;2022-09-25T01:36:46;27.13;;;16.58;;
17141;SDS011;32805;53.556;9.944;2022-09-25T01:39:19;45.67;;;20.92;;
17141;SDS011;32805;53.556;9.944;2022-09-25T01:41:49;33.20;;;17.67;;
17141;SDS011;32805;53.556;9.944;2022-09-25T01:44:24;31.95;;;19.38;;
17141;SDS011;32805;53.556;9.944;2022-09-25T01:46:56;28.23;;;17.02;;
17141;SDS011;32805;53.556;9.944;2022-09-25T01:49:29;35.50;;;19.70;;
17141;SDS011;32805;53.556;9.944;2022-09-25T01:52:00;32.45;;;17.67;;
17141;SDS011;32805;53.556;9.944;2022-09-25T01:54:33;28.05;;;16.65;;
17141;SDS011;32805;53.556;9.944;2022-09-25T01:57:06;37.00;;;20.10;;
17141;SDS011;32805;53.556;9.944;2022-09-25T01:59:38;34.00;;;16.85;;
17141;SDS011;32805;53.556;9.944;2022-09-25T02:02:11;30.60;;;17.35;;
17141;SDS011;32805;53.556;9.944;2022-09-25T02:04:41;37.20;;;19.10;;
17141;SDS011;32805;53.556;9.944;2022-09-25T02:07:13;36.70;;;19.70;;
17141;SDS011;32805;53.556;9.944;2022-09-25T02:09:47;37.55;;;18.90;;
17141;SDS011;32805;53.556;9.944;2022-09-25T02:12:18;36.03;;;19.80;;
17141;SDS011;32805;53.556;9.944;2022-09-25T02:14:52;37.80;;;21.23;;
17141;SDS011;32805;53.556;9.944;2022-09-25T02:17:25;34.58;;;18.42;;
17141;SDS011;32805;53.556;9.944;2022-09-25T02:20:15;31.83;;;16.80;;
17141;SDS011;32805;53.556;9.944;2022-09-25T02:23:01;33.08;;;19.10;;
17141;SDS011;32805;53.556;9.944;2022-09-25T02:25:35;30.15;;;17.38;;
17141;SDS011;32805;53.556;9.944;2022-09-25T02:28:04;32.67;;;18.55;;
17141;SDS011;32805;53.556;9.944;2022-09-25T02:30:33;31.95;;;17.35;;
17141;SDS011;32805;53.556;9.944;2022-09-25T02:33:01;29.55;;;17.13;;
17141;SDS011;32805;53.556;9.944;2022-09-25T02:35:29;28.95;;;17.05;;
17141;SDS011;32805;53.556;9.944;2022-09-25T02:37:56;33.28;;;18.33;;
17141;SDS011;32805;53.556;9.944;2022-09-25T02:40:25;35.85;;;19.45;;
17141;SDS011;32805;53.556;9.944;2022-09-25T02:43:02;35.25;;;19.73;;
17141;SDS011;32805;53.556;9.944;2022-09-25T02:45:41;39.92;;;20.60;;
17141;SDS011;32805;53.556;9.944;2022-09-25T02:48:17;35.42;;;19.25;;
17141;SDS011;32805;53.556;9.944;2022-09-25T02:50:55;38.38;;;19.83;;
17141;SDS011;32805;53.556;9.944;2022-09-25T02:53:31;32.65;;;18.08;;
17141;SDS011;32805;53.556;9.944;2022-09-25T02:56:03;25.88;;;15.27;;
17141;SDS011;32805;53.556;9.944;2022-09-25T02:58:37;24.73;;;14.45;;
17141;SDS011;32805;53.556;9.944;2022-09-25T03:01:09;33.70;;;18.05;;
17141;SDS011;32805;53.556;9.944;2022-09-25T03:03:40;32.50;;;17.65;;
17141;SDS011;32805;53.556;9.944;2022-09-25T03:06:09;25.20;;;15.73;;
17141;SDS011;32805;53.556;9.944;2022-09-25T03:08:37;26.88;;;15.88;;
17141;SDS011;32805;53.556;9.944;2022-09-25T03:11:12;29.38;;;16.08;;
17141;SDS011;32805;53.556;9.944;2022-09-25T03:13:42;30.98;;;17.45;;
17141;SDS011;32805;53.556;9.944;2022-09-25T03:16:13;36.20;;;19.38;;
17141;SDS011;32805;53.556;9.944;2022-09-25T03:18:45;33.53;;;18.15;;
17141;SDS011;32805;53.556;9.944;2022-09-25T03:21:13;36.63;;;18.20;;
17141;SDS011;32805;53.556;9.944;2022-09-25T03:23:41;36.92;;;17.48;;
17141;SDS011;32805;53.556;9.944;2022-09-25T03:26:09;27.27;;;14.05;;
17141;SDS011;32805;53.556;9.944;2022-09-25T03:28:36;29.60;;;16.17;;
17141;SDS011;32805;53.556;9.944;2022-09-25T03:31:05;28.38;;;17.00;;
17141;SDS011;32805;53.556;9.944;2022-09-25T03:33:37;29.13;;;16.35;;
17141;SDS011;32805;53.556;9.944;2022-09-25T03:36:06;29.73;;;16.17;;
17141;SDS011;32805;53.556;9.944;2022-09-25T03:38:37;31.83;;;15.98;;
17141;SDS011;32805;53.556;9.944;2022-09-25T03:41:07;33.38;;;16.75;;
17141;SDS011;32805;53.556;9.944;2022-09-25T03:43:36;33.55;;;17.40;;
17141;SDS011;32805;53.556;9.944;2022-09-25T03:46:05;34.03;;;17.13;;
17141;SDS011;32805;53.556;9.944;2022-09-25T03:48:34;38.22;;;18.80;;
17141;SDS011;32805;53.556;9.944;2022-09-25T03:51:05;40.90;;;20.08;;
17141;SDS011;32805;53.556;9.944;2022-09-25T03:53:33;34.75;;;18.75;;
17141;SDS011;32805;53.556;9.944;2022-09-25T03:56:02;35.28;;;16.42;;
17141;SDS011;32805;53.556;9.944;2022-09-25T03:58:31;34.17;;;18.08;;
17141;SDS011;32805;53.556;9.944;2022-09-25T04:01:00;27.92;;;15.43;;
17141;SDS011;32805;53.556;9.944;2022-09-25T04:03:28;32.10;;;16.75;;
17141;SDS011;32805;53.556;9.944;2022-09-25T04:05:59;42.00;;;18.95;;
17141;SDS011;32805;53.556;9.944;2022-09-25T04:08:30;41.90;;;19.67;;
17141;SDS011;32805;53.556;9.944;2022-09-25T04:10:59;36.80;;;17.25;;
17141;SDS011;32805;53.556;9.944;2022-09-25T04:13:27;48.33;;;21.08;;
17141;SDS011;32805;53.556;9.944;2022-09-25T04:15:57;38.35;;;16.98;;
17141;SDS011;32805;53.556;9.944;2022-09-25T04:18:26;41.42;;;17.33;;
17141;SDS011;32805;53.556;9.944;2022-09-25T04:20:58;30.00;;;15.45;;
17141;SDS011;32805;53.556;9.944;2022-09-25T04:23:26;30.15;;;15.35;;
17141;SDS011;32805;53.556;9.944;2022-09-25T04:25:54;28.27;;;14.73;;
17141;SDS011;32805;53.556;9.944;2022-09-25T04:28:21;29.15;;;15.65;;
17141;SDS011;32805;53.556;9.944;2022-09-25T04:30:49;25.92;;;14.25;;
17141;SDS011;32805;53.556;9.944;2022-09-25T04:33:17;25.15;;;14.43;;
17141;SDS011;32805;53.556;9.944;2022-09-25T04:36:04;35.60;;;15.98;;
17141;SDS011;32805;53.556;9.944;2022-09-25T04:38:32;26.88;;;14.63;;
17141;SDS011;32805;53.556;9.944;2022-09-25T04:41:01;31.48;;;15.75;;
17141;SDS011;32805;53.556;9.944;2022-09-25T04:43:29;52.42;;;20.00;;
17141;SDS011;32805;53.556;9.944;2022-09-25T04:45:59;30.52;;;15.43;;
17141;SDS011;32805;53.556;9.944;2022-09-25T04:48:27;40.63;;;18.05;;
17141;SDS011;32805;53.556;9.944;2022-09-25T04:50:55;28.02;;;15.10;;
17141;SDS011;32805;53.556;9.944;2022-09-25T04:53:25;42.40;;;19.15;;
17141;SDS011;32805;53.556;9.944;2022-09-25T04:55:52;31.38;;;15.00;;
17141;SDS011;32805;53.556;9.944;2022-09-25T04:58:21;24.58;;;13.60;;
17141;SDS011;32805;53.556;9.944;2022-09-25T05:00:48;23.30;;;14.13;;
17141;SDS011;32805;53.556;9.944;2022-09-25T05:03:16;25.73;;;14.13;;
17141;SDS011;32805;53.556;9.944;2022-09-25T05:05:44;26.05;;;14.25;;
17141;SDS011;32805;53.556;9.944;2022-09-25T05:08:11;76.05;;;26.85;;
17141;SDS011;32805;53.556;9.944;2022-09-25T05:10:41;21.77;;;13.90;;
17141;SDS011;32805;53.556;9.944;2022-09-25T05:13:09;23.65;;;14.32;;
17141;SDS011;32805;53.556;9.944;2022-09-25T05:15:37;28.08;;;16.20;;
17141;SDS011;32805;53.556;9.944;2022-09-25T05:18:05;25.08;;;15.05;;
17141;SDS011;32805;53.556;9.944;2022-09-25T05:20:34;24.75;;;14.85;;
17141;SDS011;32805;53.556;9.944;2022-09-25T05:23:02;23.85;;;15.18;;
17141;SDS011;32805;53.556;9.944;2022-09-25T05:25:29;24.05;;;14.93;;
17141;SDS011;32805;53.556;9.944;2022-09-25T05:27:59;22.95;;;13.40;;
17141;SDS011;32805;53.556;9.944;2022-09-25T05:30:28;22.20;;;13.43;;
17141;SDS011;32805;53.556;9.944;2022-09-25T05:32:57;26.08;;;16.55;;
17141;SDS011;32805;53.556;9.944;2022-09-25T05:35:26;56.88;;;22.88;;
17141;SDS011;32805;53.556;9.944;2022-09-25T05:37:54;21.77;;;14.48;;
17141;SDS011;32805;53.556;9.944;2022-09-25T05:40:22;22.88;;;14.40;;
17141;SDS011;32805;53.556;9.944;2022-09-25T05:42:50;21.90;;;13.55;;
17141;SDS011;32805;53.556;9.944;2022-09-25T05:45:20;41.33;;;18.98;;
17141;SDS011;32805;53.556;9.944;2022-09-25T05:47:57;24.40;;;15.13;;
17141;SDS011;32805;53.556;9.944;2022-09-25T05:50:26;22.38;;;14.05;;
17141;SDS011;32805;53.556;9.944;2022-09-25T05:52:54;25.52;;;14.23;;
17141;SDS011;32805;53.556;9.944;2022-09-25T05:55:22;31.38;;;18.02;;
17141;SDS011;32805;53.556;9.944;2022-09-25T05:57:50;27.20;;;15.13;;
17141;SDS011;32805;53.556;9.944;2022-09-25T06:00:18;22.42;;;14.02;;
17141;SDS011;32805;53.556;9.944;2022-09-25T06:02:49;27.13;;;15.25;;
17141;SDS011;32805;53.556;9.944;2022-09-25T06:05:18;24.02;;;14.38;;
17141;SDS011;32805;53.556;9.944;2022-09-25T06:07:50;38.83;;;18.35;;
17141;SDS011;32805;53.556;9.944;2022-09-25T06:10:19;24.17;;;14.90;;
17141;SDS011;32805;53.556;9.944;2022-09-25T06:12:46;23.70;;;14.63;;
17141;SDS011;32805;53.556;9.944;2022-09-25T06:15:14;25.13;;;14.73;;
17141;SDS011;32805;53.556;9.944;2022-09-25T06:17:43;19.70;;;13.38;;
17141;SDS011;32805;53.556;9.944;2022-09-25T06:20:11;27.08;;;15.73;;
17141;SDS011;32805;53.556;9.944;2022-09-25T06:22:41;19.30;;;13.73;;
17141;SDS011;32805;53.556;9.944;2022-09-25T06:25:09;32.80;;;15.80;;
17141;SDS011;32805;53.556;9.944;2022-09-25T06:27:37;23.60;;;15.43;;
17141;SDS011;32805;53.556;9.944;2022-09-25T06:30:06;20.63;;;13.63;;
17141;SDS011;32805;53.556;9.944;2022-09-25T06:32:33;23.88;;;16.02;;
17141;SDS011;32805;53.556;9.944;2022-09-25T06:35:02;23.48;;;14.60;;
17141;SDS011;32805;53.556;9.944;2022-09-25T06:37:30;21.92;;;14.15;;
17141;SDS011;32805;53.556;9.944;2022-09-25T06:39:58;23.10;;;14.50;;
17141;SDS011;32805;53.556;9.944;2022-09-25T06:42:26;21.80;;;14.77;;
17141;SDS011;32805;53.556;9.944;2022-09-25T06:44:53;41.40;;;20.30;;
17141;SDS011;32805;53.556;9.944;2022-09-25T06:47:21;26.58;;;16.60;;
17141;SDS011;32805;53.556;9.944;2022-09-25T06:49:52;37.92;;;19.27;;
17141;SDS011;32805;53.556;9.944;2022-09-25T06:52:24;28.30;;;17.75;;
17141;SDS011;32805;53.556;9.944;2022-09-25T06:54:51;25.95;;;15.98;;
17141;SDS011;32805;53.556;9.944;2022-09-25T06:57:19;27.83;;;17.48;;
17141;SDS011;32805;53.556;9.944;2022-09-25T06:59:46;27.10;;;16.30;;
17141;SDS011;32805;53.556;9.944;2022-09-25T07:02:14;49.10;;;23.75;;
17141;SDS011;32805;53.556;9.944;2022-09-25T07:04:55;34.22;;;18.83;;
17141;SDS011;32805;53.556;9.944;2022-09-25T07:07:27;34.67;;;18.00;;
17141;SDS011;32805;53.556;9.944;2022-09-25T07:09:54;35.33;;;19.67;;
17141;SDS011;32805;53.556;9.944;2022-09-25T07:12:22;39.28;;;19.17;;
17141;SDS011;32805;53.556;9.944;2022-09-25T07:14:50;31.05;;;18.55;;
17141;SDS011;32805;53.556;9.944;2022-09-25T07:17:17;31.85;;;19.35;;
17141;SDS011;32805;53.556;9.944;2022-09-25T07:19:45;32.60;;;18.88;;
17141;SDS011;32805;53.556;9.944;2022-09-25T07:22:13;39.50;;;20.25;;
17141;SDS011;32805;53.556;9.944;2022-09-25T07:24:42;39.00;;;21.33;;
17141;SDS011;32805;53.556;9.944;2022-09-25T07:27:10;26.77;;;17.13;;
17141;SDS011;32805;53.556;9.944;2022-09-25T07:29:37;25.65;;;14.02;;
17141;SDS011;32805;53.556;9.944;2022-09-25T07:32:05;12.63;;;9.00;;
17141;SDS011;32805;53.556;9.944;2022-09-25T07:34:33;7.45;;;5.75;;
17141;SDS011;32805;53.556;9.944;2022-09-25T07:37:01;7.25;;;5.90;;
17141;SDS011;32805;53.556;9.944;2022-09-25T07:39:28;6.97;;;5.85;;
17141;SDS011;32805;53.556;9.944;2022-09-25T07:41:57;7.13;;;4.85;;
17141;SDS011;32805;53.556;9.944;2022-09-25T07:44:25;5.50;;;4.68;;
17141;SDS011;32805;53.556;9.944;2022-09-25T07:46:58;11.43;;;6.60;;
17141;SDS011;32805;53.556;9.944;2022-09-25T07:49:26;6.05;;;5.32;;
17141;SDS011;32805;53.556;9.944;2022-09-25T07:51:54;13.98;;;6.85;;
17141;SDS011;32805;53.556;9.944;2022-09-25T07:54:22;6.55;;;5.47;;
17141;SDS011;32805;53.556;9.944;2022-09-25T07:56:50;7.85;;;6.13;;
17141;SDS011;32805;53.556;9.944;2022-09-25T07:59:19;5.68;;;4.60;;
17141;SDS011;32805;53.556;9.944;2022-09-25T08:01:46;9.25;;;6.00;;
17141;SDS011;32805;53.556;9.944;2022-09-25T08:04:19;6.85;;;5.70;;
17141;SDS011;32805;53.556;9.944;2022-09-25T08:06:47;7.18;;;5.63;;
17141;SDS011;32805;53.556;9.944;2022-09-25T08:09:14;6.15;;;5.53;;
17141;SDS011;32805;53.556;9.944;2022-09-25T08:11:42;7.45;;;6.65;;
17141;SDS011;32805;53.556;9.944;2022-09-25T08:14:10;7.68;;;6.72;;
17141;SDS011;32805;53.556;9.944;2022-09-25T08:16:41;7.15;;;6.40;;
17141;SDS011;32805;53.556;9.944;2022-09-25T08:19:09;7.50;;;6.18;;
17141;SDS011;32805;53.556;9.944;2022-09-25T08:21:37;6.88;;;6.03;;
17141;SDS011;32805;53.556;9.944;2022-09-25T08:24:05;8.57;;;6.78;;
17141;SDS011;32805;53.556;9.944;2022-09-25T08:26:33;7.78;;;6.80;;
17141;SDS011;32805;53.556;9.944;2022-09-25T08:29:02;8.45;;;7.30;;
17141;SDS011;32805;53.556;9.944;2022-09-25T08:31:30;9.18;;;7.55;;
17141;SDS011;32805;53.556;9.944;2022-09-25T08:34:01;9.90;;;7.30;;
17141;SDS011;32805;53.556;9.944;2022-09-25T08:36:48;10.25;;;7.40;;
17141;SDS011;32805;53.556;9.944;2022-09-25T08:39:16;9.60;;;7.85;;
17141;SDS011;32805;53.556;9.944;2022-09-25T08:41:45;9.38;;;7.70;;
17141;SDS011;32805;53.556;9.944;2022-09-25T08:44:18;8.57;;;7.07;;
17141;SDS011;32805;53.556;9.944;2022-09-25T08:46:50;8.13;;;6.53;;
17141;SDS011;32805;53.556;9.944;2022-09-25T08:49:48;7.10;;;5.53;;
17141;SDS011;32805;53.556;9.944;2022-09-25T08:52:40;8.60;;;6.80;;
17141;SDS011;32805;53.556;9.944;2022-09-25T08:55:11;7.88;;;6.13;;
17141;SDS011;32805;53.556;9.944;2022-09-25T08:57:42;7.53;;;5.63;;
17141;SDS011;32805;53.556;9.944;2022-09-25T09:00:12;7.53;;;6.47;;
17141;SDS011;32805;53.556;9.944;2022-09-25T09:02:45;7.82;;;6.53;;
17141;SDS011;32805;53.556;9.944;2022-09-25T09:05:21;8.30;;;7.00;;
17141;SDS011;32805;53.556;9.944;2022-09-25T09:07:53;12.20;;;8.10;;
17141;SDS011;32805;53.556;9.944;2022-09-25T09:10:26;9.60;;;7.05;;
17141;SDS011;32805;53.556;9.944;2022-09-25T09:12:59;8.05;;;6.45;;
17141;SDS011;32805;53.556;9.944;2022-09-25T09:15:32;7.20;;;6.28;;
17141;SDS011;32805;53.556;9.944;2022-09-25T09:18:06;7.63;;;6.75;;
17141;SDS011;32805;53.556;9.944;2022-09-25T09:20:47;8.63;;;7.10;;
17141;SDS011;32805;53.556;9.944;2022-09-25T09:23:18;9.25;;;6.53;;
17141;SDS011;32805;53.556;9.944;2022-09-25T09:25:49;9.70;;;7.80;;
17141;SDS011;32805;53.556;9.944;2022-09-25T09:28:44;11.63;;;8.27;;
17141;SDS011;32805;53.556;9.944;2022-09-25T09:31:38;12.52;;;7.97;;
17141;SDS011;32805;53.556;9.944;2022-09-25T09:34:25;11.02;;;8.13;;
17141;SDS011;32805;53.556;9.944;2022-09-25T09:37:35;12.85;;;8.32;;
17141;SDS011;32805;53.556;9.944;2022-09-25T09:40:16;10.68;;;7.82;;
17141;SDS011;32805;53.556;9.944;2022-09-25T09:42:57;11.95;;;7.93;;
17141;SDS011;32805;53.556;9.944;2022-09-25T09:45:31;10.45;;;8.50;;
17141;SDS011;32805;53.556;9.944;2022-09-25T09:48:08;11.45;;;8.27;;
17141;SDS011;32805;53.556;9.944;2022-09-25T09:50:43;9.73;;;8.68;;
17141;SDS011;32805;53.556;9.944;2022-09-25T09:53:24;11.40;;;8.90;;
17141;SDS011;32805;53.556;9.944;2022-09-25T09:55:59;12.38;;;9.85;;
17141;SDS011;32805;53.556;9.944;2022-09-25T09:58:35;14.55;;;9.13;;
17141;SDS011;32805;53.556;9.944;2022-09-25T10:01:10;11.52;;;7.63;;
17141;SDS011;32805;53.556;9.944;2022-09-25T10:04:02;13.05;;;9.02;;
17141;SDS011;32805;53.556;9.944;2022-09-25T10:06:32;11.40;;;8.13;;
17141;SDS011;32805;53.556;9.944;2022-09-25T10:09:04;11.48;;;8.68;;
17141;SDS011;32805;53.556;9.944;2022-09-25T10:11:32;11.35;;;8.35;;
17141;SDS011;32805;53.556;9.944;2022-09-25T10:14:01;13.43;;;9.45;;
17141;SDS011;32805;53.556;9.944;2022-09-25T10:16:30;12.63;;;10.05;;
17141;SDS011;32805;53.556;9.944;2022-09-25T10:19:00;17.88;;;10.10;;
17141;SDS011;32805;53.556;9.944;2022-09-25T10:21:32;13.15;;;10.05;;
17141;SDS011;32805;53.556;9.944;2022-09-25T10:24:07;13.65;;;9.75;;
17141;SDS011;32805;53.556;9.944;2022-09-25T10:26:35;16.73;;;9.65;;
17141;SDS011;32805;53.556;9.944;2022-09-25T10:29:10;15.07;;;11.13;;
17141;SDS011;32805;53.556;9.944;2022-09-25T10:31:55;16.95;;;11.27;;
17141;SDS011;32805;53.556;9.944;2022-09-25T10:34:26;13.02;;;9.95;;
17141;SDS011;32805;53.556;9.944;2022-09-25T10:36:55;17.70;;;10.73;;
17141;SDS011;32805;53.556;9.944;2022-09-25T10:39:26;12.57;;;9.75;;
17141;SDS011;32805;53.556;9.944;2022-09-25T10:47:55;10.80;;;7.43;;
17141;SDS011;32805;53.556;9.944;2022-09-25T10:50:40;11.48;;;7.72;;
17141;SDS011;32805;53.556;9.944;2022-09-25T10:53:22;11.27;;;8.25;;
17141;SDS011;32805;53.556;9.944;2022-09-25T10:55:56;11.93;;;7.53;;
17141;SDS011;32805;53.556;9.944;2022-09-25T10:58:31;9.88;;;7.97;;
17141;SDS011;32805;53.556;9.944;2022-09-25T11:01:04;12.98;;;9.00;;
17141;SDS011;32805;53.556;9.944;2022-09-25T11:03:43;12.32;;;8.68;;
17141;SDS011;32805;53.556;9.944;2022-09-25T11:06:15;10.52;;;8.77;;
17141;SDS011;32805;53.556;9.944;2022-09-25T11:08:46;12.60;;;8.65;;
17141;SDS011;32805;53.556;9.944;2022-09-25T11:11:21;11.02;;;8.35;;
17141;SDS011;32805;53.556;9.944;2022-09-25T11:13:53;17.02;;;9.98;;
17141;SDS011;32805;53.556;9.944;2022-09-25T11:19:23;12.52;;;8.45;;
17141;SDS011;32805;53.556;9.944;2022-09-25T11:24:47;11.18;;;9.00;;
17141;SDS011;32805;53.556;9.944;2022-09-25T11:27:27;11.38;;;8.30;;
17141;SDS011;32805;53.556;9.944;2022-09-25T11:30:03;11.10;;;8.38;;
17141;SDS011;32805;53.556;9.944;2022-09-25T11:32:35;12.15;;;9.07;;
17141;SDS011;32805;53.556;9.944;2022-09-25T11:35:29;15.40;;;9.48;;
17141;SDS011;32805;53.556;9.944;2022-09-25T11:38:11;13.63;;;8.85;;
17141;SDS011;32805;53.556;9.944;2022-09-25T11:40:49;10.60;;;7.82;;
17141;SDS011;32805;53.556;9.944;2022-09-25T11:43:44;13.48;;;8.38;;
17141;SDS011;32805;53.556;9.944;2022-09-25T11:46:25;12.68;;;7.75;;
17141;SDS011;32805;53.556;9.944;2022-09-25T11:49:03;12.35;;;7.70;;
17141;SDS011;32805;53.556;9.944;2022-09-25T11:51:52;9.40;;;7.30;;
17141;SDS011;32805;53.556;9.944;2022-09-25T11:54:33;9.95;;;7.78;;
17141;SDS011;32805;53.556;9.944;2022-09-25T11:57:09;12.27;;;7.13;;
17141;SDS011;32805;53.556;9.944;2022-09-25T11:59:44;8.40;;;6.03;;
17141;SDS011;32805;53.556;9.944;2022-09-25T12:02:27;9.40;;;6.57;;
17141;SDS011;32805;53.556;9.944;2022-09-25T12:05:17;8.35;;;6.07;;
17141;SDS011;32805;53.556;9.944;2022-09-25T12:08:03;10.15;;;5.70;;
17141;SDS011;32805;53.556;9.944;2022-09-25T12:10:45;6.78;;;5.28;;
17141;SDS011;32805;53.556;9.944;2022-09-25T12:13:20;9.32;;;5.80;;
17141;SDS011;32805;53.556;9.944;2022-09-25T12:16:01;10.13;;;6.45;;
17141;SDS011;32805;53.556;9.944;2022-09-25T12:18:46;7.55;;;6.03;;
17141;SDS011;32805;53.556;9.944;2022-09-25T12:21:31;12.50;;;6.70;;
17141;SDS011;32805;53.556;9.944;2022-09-25T12:24:06;10.18;;;6.68;;
17141;SDS011;32805;53.556;9.944;2022-09-25T12:26:43;7.22;;;6.22;;
17141;SDS011;32805;53.556;9.944;2022-09-25T12:29:25;7.80;;;5.93;;
17141;SDS011;32805;53.556;9.944;2022-09-25T12:32:04;8.52;;;5.70;;
17141;SDS011;32805;53.556;9.944;2022-09-25T12:34:45;8.10;;;6.43;;
17141;SDS011;32805;53.556;9.944;2022-09-25T12:37:27;9.18;;;5.38;;
17141;SDS011;32805;53.556;9.944;2022-09-25T12:40:02;8.77;;;5.20;;
17141;SDS011;32805;53.556;9.944;2022-09-25T12:42:43;6.72;;;5.13;;
17141;SDS011;32805;53.556;9.944;2022-09-25T12:45:18;7.20;;;5.50;;
17141;SDS011;32805;53.556;9.944;2022-09-25T12:47:58;6.90;;;6.15;;
17141;SDS011;32805;53.556;9.944;2022-09-25T12:50:32;6.55;;;5.88;;
17141;SDS011;32805;53.556;9.944;2022-09-25T12:53:05;10.90;;;6.18;;
17141;SDS011;32805;53.556;9.944;2022-09-25T12:55:46;8.63;;;5.40;;
17141;SDS011;32805;53.556;9.944;2022-09-25T12:58:21;6.53;;;4.70;;
17141;SDS011;32805;53.556;9.944;2022-09-25T13:00:58;8.38;;;4.60;;
17141;SDS011;32805;53.556;9.944;2022-09-25T13:03:37;7.35;;;4.65;;
17141;SDS011;32805;53.556;9.944;2022-09-25T13:06:13;7.15;;;4.63;;
17141;SDS011;32805;53.556;9.944;2022-09-25T13:08:45;6.10;;;4.72;;
17141;SDS011;32805;53.556;9.944;2022-09-25T13:11:22;7.35;;;4.22;;
17141;SDS011;32805;53.556;9.944;2022-09-25T13:13:59;10.18;;;4.57;;
17141;SDS011;32805;53.556;9.944;2022-09-25T13:16:29;4.45;;;3.72;;
17141;SDS011;32805;53.556;9.944;2022-09-25T13:21:57;5.07;;;3.65;;
17141;SDS011;32805;53.556;9.944;2022-09-25T13:24:30;8.60;;;4.32;;
17141;SDS011;32805;53.556;9.944;2022-09-25T13:27:08;4.15;;;3.58;;
17141;SDS011;32805;53.556;9.944;2022-09-25T13:29:49;4.85;;;3.45;;
17141;SDS011;32805;53.556;9.944;2022-09-25T13:32:20;4.68;;;3.17;;
17141;SDS011;32805;53.556;9.944;2022-09-25T13:34:54;6.20;;;2.90;;
17141;SDS011;32805;53.556;9.944;2022-09-25T13:37:24;5.45;;;2.60;;
17141;SDS011;32805;53.556;9.944;2022-09-25T13:39:54;4.68;;;2.55;;
17141;SDS011;32805;53.556;9.944;2022-09-25T13:42:40;4.47;;;2.42;;
17141;SDS011;32805;53.556;9.944;2022-09-25T13:45:29;6.40;;;3.00;;
17141;SDS011;32805;53.556;9.944;2022-09-25T13:48:05;3.78;;;2.38;;
17141;SDS011;32805;53.556;9.944;2022-09-25T13:50:41;16.35;;;5.75;;
17141;SDS011;32805;53.556;9.944;2022-09-25T13:53:12;3.13;;;2.22;;
17141;SDS011;32805;53.556;9.944;2022-09-25T13:59:00;11.15;;;3.80;;
17141;SDS011;32805;53.556;9.944;2022-09-25T14:01:45;2.83;;;2.45;;
17141;SDS011;32805;53.556;9.944;2022-09-25T14:04:17;5.88;;;3.22;;
17141;SDS011;32805;53.556;9.944;2022-09-25T14:06:52;4.95;;;2.92;;
17141;SDS011;32805;53.556;9.944;2022-09-25T14:09:23;4.75;;;2.28;;
17141;SDS011;32805;53.556;9.944;2022-09-25T14:11:59;5.93;;;2.47;;
17141;SDS011;32805;53.556;9.944;2022-09-25T14:14:34;7.40;;;2.97;;
17141;SDS011;32805;53.556;9.944;2022-09-25T14:17:09;4.97;;;2.60;;
17141;SDS011;32805;53.556;9.944;2022-09-25T14:19:42;4.20;;;2.40;;
17141;SDS011;32805;53.556;9.944;2022-09-25T14:22:16;6.38;;;3.10;;
17141;SDS011;32805;53.556;9.944;2022-09-25T14:24:47;7.30;;;3.78;;
17141;SDS011;32805;53.556;9.944;2022-09-25T14:27:17;8.68;;;2.90;;
17141;SDS011;32805;53.556;9.944;2022-09-25T14:29:49;3.72;;;2.30;;
17141;SDS011;32805;53.556;9.944;2022-09-25T14:32:32;6.18;;;2.80;;
17141;SDS011;32805;53.556;9.944;2022-09-25T14:35:25;5.88;;;3.40;;
17141;SDS011;32805;53.556;9.944;2022-09-25T14:38:11;4.32;;;2.80;;
17141;SDS011;32805;53.556;9.944;2022-09-25T14:40:50;7.22;;;3.17;;
17141;SDS011;32805;53.556;9.944;2022-09-25T14:43:33;7.55;;;2.80;;
17141;SDS011;32805;53.556;9.944;2022-09-25T14:46:15;7.07;;;3.08;;
17141;SDS011;32805;53.556;9.944;2022-09-25T14:48:48;4.75;;;2.67;;
17141;SDS011;32805;53.556;9.944;2022-09-25T14:51:21;3.53;;;2.17;;
17141;SDS011;32805;53.556;9.944;2022-09-25T14:53:55;9.60;;;3.10;;
17141;SDS011;32805;53.556;9.944;2022-09-25T14:56:24;3.15;;;1.80;;
17141;SDS011;32805;53.556;9.944;2022-09-25T14:58:56;5.70;;;2.00;;
17141;SDS011;32805;53.556;9.944;2022-09-25T15:01:29;4.07;;;1.80;;
17141;SDS011;32805;53.556;9.944;2022-09-25T15:03:58;6.78;;;2.75;;
17141;SDS011;32805;53.556;9.944;2022-09-25T15:06:29;5.38;;;1.88;;
17141;SDS011;32805;53.556;9.944;2022-09-25T15:08:59;4.00;;;1.50;;
17141;SDS011;32805;53.556;9.944;2022-09-25T15:11:37;5.07;;;1.30;;
17141;SDS011;32805;53.556;9.944;2022-09-25T15:14:09;2.65;;;1.02;;
17141;SDS011;32805;53.556;9.944;2022-09-25T15:16:38;6.50;;;1.27;;
17141;SDS011;32805;53.556;9.944;2022-09-25T15:19:24;2.70;;;1.58;;
17141;SDS011;32805;53.556;9.944;2022-09-25T15:21:54;4.10;;;1.33;;